Accueil
METAR-TAF:

METAR-TAF

Aéroports :

Niamey, Niger

Aéroport international Diori Hamani

latitude: 13-29N, longitude: 002-10E, altitude: 223 m

Observation

Le bulletin a été fait il y a 1 heure et 16 minutes, à 04:00 UTC
Vent 7 kt de sud/sud-est, variant entre est/sud-est et sud
Température 25°C
Humidité 79%
Pression 1013 hPa
Visibilité: 8000 m
Nuages épars à une hauteur de 2000 ft
Quelques nuages à une hauteur de 3300 ft, Cumulonimbus.
orage

METAR: DRRN 260400Z 15007KT 120V180 8000 TS SCT020 FEW033CB 25/21 Q1013 TEMPO 14026KT 3500 TS SHRA

Heure: 06:16 (05:16 UTC)


TAF: absent

Observations et prévisions météorologiques de plus de 4000 aéroports (messages METAR et TAF).

Les stations disponibles sont représentées par des disques jaunes et rouges sur la carte.

Passer la souris dessus pour voir le nom de la station.

Cliquer dessus pour voir les observations et prévisions météorologiques.

Pour changer de carte: cliquez sur les boutons verts avec une croix noire pour zoomer, sur le bouton vert avec un tiret pour effectuer un zoom arrière, ou sur les flèches vertes pour les cartes adjacentes.


METAR-TAF: